Search for airport 
image banner adimage banner adimage banner ad
image banner ad

NV31 - Barker Creek Ranch Airstrip

Located in Round Mountain, United States

ICAO - NV31, IATA -

Data provided by Airmate  

General information

Coordinates: N38°48'21" W117°1'52"
Elevation is 6620 feet MSL.
Magnetic variation is 15° East
View others Airports in Nevada

Operational data

Special qualification required
Current time UTC:
Current local time:
Weather at : KTMT - Austin ( 75 km )
METAR: KTMT 131035Z AUTO 00000KT 10SM CLR 03/M03 A3006 RMK AO2 T00281035
View NOTAMs / SUP AIP / TFR affecting this airport [VIEW]
Communications frequencies: [VIEW]

Runways:

RWY identifierQFULength (ft)Width (ft)SurfaceLDA (ft)
09135030ASPH
27135030ASPH

Airport contact information

Address: Round Mountain United States

Satellite view of NV31